sensor_id;sensor_type;location;lat;lon;timestamp;temperature;humidity
72320;SHT30;60269;52.502;16.732;2024-01-07T00:03:21;-4.43;89.36
72320;SHT30;60269;52.502;16.732;2024-01-07T00:06:53;-4.42;89.45
72320;SHT30;60269;52.502;16.732;2024-01-07T00:10:25;-4.37;88.64
72320;SHT30;60269;52.502;16.732;2024-01-07T00:13:57;-4.39;88.80
72320;SHT30;60269;52.502;16.732;2024-01-07T00:17:30;-4.35;88.33
72320;SHT30;60269;52.502;16.732;2024-01-07T00:21:02;-4.30;87.31
72320;SHT30;60269;52.502;16.732;2024-01-07T00:24:34;-4.29;87.10
72320;SHT30;60269;52.502;16.732;2024-01-07T00:28:06;-4.26;87.00
72320;SHT30;60269;52.502;16.732;2024-01-07T00:31:38;-4.26;86.71
72320;SHT30;60269;52.502;16.732;2024-01-07T00:35:10;-4.26;86.52
72320;SHT30;60269;52.502;16.732;2024-01-07T00:38:42;-4.23;85.60
72320;SHT30;60269;52.502;16.732;2024-01-07T00:42:14;-4.28;86.14
72320;SHT30;60269;52.502;16.732;2024-01-07T00:45:46;-4.35;86.15
72320;SHT30;60269;52.502;16.732;2024-01-07T00:49:18;-4.35;86.03
72320;SHT30;60269;52.502;16.732;2024-01-07T00:52:50;-4.39;85.94
72320;SHT30;60269;52.502;16.732;2024-01-07T00:56:26;-4.39;86.76
72320;SHT30;60269;52.502;16.732;2024-01-07T00:59:59;-4.35;86.66
72320;SHT30;60269;52.502;16.732;2024-01-07T01:03:31;-4.35;87.17
72320;SHT30;60269;52.502;16.732;2024-01-07T01:07:04;-4.36;88.02
72320;SHT30;60269;52.502;16.732;2024-01-07T01:10:36;-4.36;87.58
72320;SHT30;60269;52.502;16.732;2024-01-07T01:14:08;-4.29;87.30
72320;SHT30;60269;52.502;16.732;2024-01-07T01:17:40;-4.28;87.25
72320;SHT30;60269;52.502;16.732;2024-01-07T01:21:11;-4.28;86.98
72320;SHT30;60269;52.502;16.732;2024-01-07T01:24:44;-4.28;86.97
72320;SHT30;60269;52.502;16.732;2024-01-07T01:28:17;-4.33;87.14
72320;SHT30;60269;52.502;16.732;2024-01-07T01:31:49;-4.33;87.65
72320;SHT30;60269;52.502;16.732;2024-01-07T01:35:22;-4.36;87.08
72320;SHT30;60269;52.502;16.732;2024-01-07T01:38:53;-4.42;87.76
72320;SHT30;60269;52.502;16.732;2024-01-07T01:42:25;-4.43;87.83
72320;SHT30;60269;52.502;16.732;2024-01-07T01:45:58;-4.49;88.05
72320;SHT30;60269;52.502;16.732;2024-01-07T01:49:30;-4.53;87.38
72320;SHT30;60269;52.502;16.732;2024-01-07T01:53:02;-4.59;87.10
72320;SHT30;60269;52.502;16.732;2024-01-07T01:56:34;-4.66;87.89
72320;SHT30;60269;52.502;16.732;2024-01-07T02:00:07;-4.67;88.04
72320;SHT30;60269;52.502;16.732;2024-01-07T02:03:40;-4.70;87.76
72320;SHT30;60269;52.502;16.732;2024-01-07T02:07:12;-4.70;87.42
72320;SHT30;60269;52.502;16.732;2024-01-07T02:10:44;-4.80;87.68
72320;SHT30;60269;52.502;16.732;2024-01-07T02:14:16;-4.93;87.58
72320;SHT30;60269;52.502;16.732;2024-01-07T02:17:49;-5.04;87.90
72320;SHT30;60269;52.502;16.732;2024-01-07T02:21:21;-5.25;88.13
72320;SHT30;60269;52.502;16.732;2024-01-07T02:24:53;-5.46;88.66
72320;SHT30;60269;52.502;16.732;2024-01-07T02:28:25;-5.58;88.52
72320;SHT30;60269;52.502;16.732;2024-01-07T02:31:57;-5.62;88.08
72320;SHT30;60269;52.502;16.732;2024-01-07T02:35:29;-5.83;89.24
72320;SHT30;60269;52.502;16.732;2024-01-07T02:39:01;-5.93;89.35
72320;SHT30;60269;52.502;16.732;2024-01-07T02:42:33;-6.04;89.44
72320;SHT30;60269;52.502;16.732;2024-01-07T02:46:05;-6.05;89.12
72320;SHT30;60269;52.502;16.732;2024-01-07T02:49:37;-6.12;89.03
72320;SHT30;60269;52.502;16.732;2024-01-07T02:53:09;-6.20;89.11
72320;SHT30;60269;52.502;16.732;2024-01-07T02:56:43;-6.26;89.59
72320;SHT30;60269;52.502;16.732;2024-01-07T03:00:16;-6.41;90.13
72320;SHT30;60269;52.502;16.732;2024-01-07T03:03:48;-6.45;90.23
72320;SHT30;60269;52.502;16.732;2024-01-07T03:07:20;-6.48;90.54
72320;SHT30;60269;52.502;16.732;2024-01-07T03:10:52;-6.42;90.08
72320;SHT30;60269;52.502;16.732;2024-01-07T03:14:24;-6.53;90.48
72320;SHT30;60269;52.502;16.732;2024-01-07T03:17:57;-6.45;89.73
72320;SHT30;60269;52.502;16.732;2024-01-07T03:21:30;-6.56;90.41
72320;SHT30;60269;52.502;16.732;2024-01-07T03:25:02;-6.70;90.77
72320;SHT30;60269;52.502;16.732;2024-01-07T03:28:34;-6.72;91.09
72320;SHT30;60269;52.502;16.732;2024-01-07T03:32:06;-6.60;90.74
72320;SHT30;60269;52.502;16.732;2024-01-07T03:35:38;-6.63;90.54
72320;SHT30;60269;52.502;16.732;2024-01-07T03:39:10;-6.63;90.43
72320;SHT30;60269;52.502;16.732;2024-01-07T03:42:43;-6.54;90.07
72320;SHT30;60269;52.502;16.732;2024-01-07T03:46:16;-6.60;90.45
72320;SHT30;60269;52.502;16.732;2024-01-07T03:49:48;-6.60;90.24
72320;SHT30;60269;52.502;16.732;2024-01-07T03:53:20;-6.63;90.40
72320;SHT30;60269;52.502;16.732;2024-01-07T03:56:52;-6.70;90.49
72320;SHT30;60269;52.502;16.732;2024-01-07T04:00:24;-6.62;90.00
72320;SHT30;60269;52.502;16.732;2024-01-07T04:03:56;-6.59;89.86
72320;SHT30;60269;52.502;16.732;2024-01-07T04:07:28;-6.63;90.01
72320;SHT30;60269;52.502;16.732;2024-01-07T04:11:02;-6.73;90.16
72320;SHT30;60269;52.502;16.732;2024-01-07T04:14:34;-6.76;90.32
72320;SHT30;60269;52.502;16.732;2024-01-07T04:18:06;-6.75;90.13
72320;SHT30;60269;52.502;16.732;2024-01-07T04:21:38;-6.86;90.80
72320;SHT30;60269;52.502;16.732;2024-01-07T04:25:10;-6.79;90.57
72320;SHT30;60269;52.502;16.732;2024-01-07T04:28:43;-6.96;90.98
72320;SHT30;60269;52.502;16.732;2024-01-07T04:32:15;-6.91;91.13
72320;SHT30;60269;52.502;16.732;2024-01-07T04:35:47;-6.87;90.84
72320;SHT30;60269;52.502;16.732;2024-01-07T04:39:19;-6.97;91.28
72320;SHT30;60269;52.502;16.732;2024-01-07T04:42:51;-7.04;91.58
72320;SHT30;60269;52.502;16.732;2024-01-07T04:46:23;-7.08;92.00
72320;SHT30;60269;52.502;16.732;2024-01-07T04:49:56;-7.18;92.18
72320;SHT30;60269;52.502;16.732;2024-01-07T04:53:27;-7.21;92.48
72320;SHT30;60269;52.502;16.732;2024-01-07T04:57:00;-7.07;92.03
72320;SHT30;60269;52.502;16.732;2024-01-07T05:00:32;-7.15;92.16
72320;SHT30;60269;52.502;16.732;2024-01-07T05:04:04;-7.24;92.61
72320;SHT30;60269;52.502;16.732;2024-01-07T05:07:37;-7.24;92.65
72320;SHT30;60269;52.502;16.732;2024-01-07T05:11:09;-7.39;92.85
72320;SHT30;60269;52.502;16.732;2024-01-07T05:14:41;-7.42;93.38
72320;SHT30;60269;52.502;16.732;2024-01-07T05:18:14;-7.45;93.29
72320;SHT30;60269;52.502;16.732;2024-01-07T05:21:50;-7.38;93.27
72320;SHT30;60269;52.502;16.732;2024-01-07T05:25:22;-7.40;93.18
72320;SHT30;60269;52.502;16.732;2024-01-07T05:28:54;-7.42;93.31
72320;SHT30;60269;52.502;16.732;2024-01-07T05:32:26;-7.40;93.24
72320;SHT30;60269;52.502;16.732;2024-01-07T05:35:58;-7.36;93.04
72320;SHT30;60269;52.502;16.732;2024-01-07T05:39:30;-7.38;93.14
72320;SHT30;60269;52.502;16.732;2024-01-07T05:43:02;-7.32;92.91
72320;SHT30;60269;52.502;16.732;2024-01-07T05:46:38;-7.39;93.19
72320;SHT30;60269;52.502;16.732;2024-01-07T05:50:10;-7.34;92.54
72320;SHT30;60269;52.502;16.732;2024-01-07T05:53:43;-7.32;92.19
72320;SHT30;60269;52.502;16.732;2024-01-07T05:57:15;-7.42;92.33
72320;SHT30;60269;52.502;16.732;2024-01-07T06:00:48;-7.39;92.33
72320;SHT30;60269;52.502;16.732;2024-01-07T06:04:20;-7.40;92.02
72320;SHT30;60269;52.502;16.732;2024-01-07T06:07:52;-7.52;92.50
72320;SHT30;60269;52.502;16.732;2024-01-07T06:11:24;-7.62;93.01
72320;SHT30;60269;52.502;16.732;2024-01-07T06:14:56;-7.52;92.94
72320;SHT30;60269;52.502;16.732;2024-01-07T06:18:28;-7.58;92.75
72320;SHT30;60269;52.502;16.732;2024-01-07T06:22:01;-7.60;93.12
72320;SHT30;60269;52.502;16.732;2024-01-07T06:25:33;-7.56;92.76
72320;SHT30;60269;52.502;16.732;2024-01-07T06:29:05;-7.52;92.34
72320;SHT30;60269;52.502;16.732;2024-01-07T06:32:37;-7.53;92.22
72320;SHT30;60269;52.502;16.732;2024-01-07T06:36:09;-7.58;92.17
72320;SHT30;60269;52.502;16.732;2024-01-07T06:39:41;-7.55;91.78
72320;SHT30;60269;52.502;16.732;2024-01-07T06:43:13;-7.64;92.27
72320;SHT30;60269;52.502;16.732;2024-01-07T06:46:45;-7.55;91.85
72320;SHT30;60269;52.502;16.732;2024-01-07T06:50:17;-7.58;91.81
72320;SHT30;60269;52.502;16.732;2024-01-07T06:53:51;-7.52;91.95
72320;SHT30;60269;52.502;16.732;2024-01-07T06:57:23;-7.48;92.20
72320;SHT30;60269;52.502;16.732;2024-01-07T07:00:55;-7.38;91.98
72320;SHT30;60269;52.502;16.732;2024-01-07T07:04:27;-7.40;92.01
72320;SHT30;60269;52.502;16.732;2024-01-07T07:08:01;-7.40;92.39
72320;SHT30;60269;52.502;16.732;2024-01-07T07:11:34;-7.36;91.97
72320;SHT30;60269;52.502;16.732;2024-01-07T07:15:06;-7.34;92.17
72320;SHT30;60269;52.502;16.732;2024-01-07T07:18:41;-7.29;92.28
72320;SHT30;60269;52.502;16.732;2024-01-07T07:22:14;-7.22;92.15
72320;SHT30;60269;52.502;16.732;2024-01-07T07:25:46;-7.17;92.10
72320;SHT30;60269;52.502;16.732;2024-01-07T07:29:18;-6.98;91.03
72320;SHT30;60269;52.502;16.732;2024-01-07T07:32:50;-6.91;90.73
72320;SHT30;60269;52.502;16.732;2024-01-07T07:36:22;-6.77;90.54
72320;SHT30;60269;52.502;16.732;2024-01-07T07:39:55;-6.76;90.63
72320;SHT30;60269;52.502;16.732;2024-01-07T07:43:27;-6.75;90.56
72320;SHT30;60269;52.502;16.732;2024-01-07T07:47:00;-6.65;90.27
72320;SHT30;60269;52.502;16.732;2024-01-07T07:50:32;-6.62;90.46
72320;SHT30;60269;52.502;16.732;2024-01-07T07:54:04;-6.53;89.92
72320;SHT30;60269;52.502;16.732;2024-01-07T07:57:36;-6.50;89.66
72320;SHT30;60269;52.502;16.732;2024-01-07T08:01:11;-6.46;89.84
72320;SHT30;60269;52.502;16.732;2024-01-07T08:04:44;-6.38;89.74
72320;SHT30;60269;52.502;16.732;2024-01-07T08:08:16;-6.32;89.74
72320;SHT30;60269;52.502;16.732;2024-01-07T08:11:51;-6.32;89.88
72320;SHT30;60269;52.502;16.732;2024-01-07T08:15:23;-6.15;89.73
72320;SHT30;60269;52.502;16.732;2024-01-07T08:18:55;-6.07;89.17
72320;SHT30;60269;52.502;16.732;2024-01-07T08:22:29;-6.07;89.32
72320;SHT30;60269;52.502;16.732;2024-01-07T08:26:01;-5.98;89.26
72320;SHT30;60269;52.502;16.732;2024-01-07T08:29:34;-5.93;89.53
72320;SHT30;60269;52.502;16.732;2024-01-07T08:33:06;-5.89;89.33
72320;SHT30;60269;52.502;16.732;2024-01-07T08:36:39;-5.80;88.80
72320;SHT30;60269;52.502;16.732;2024-01-07T08:40:12;-5.66;87.98
72320;SHT30;60269;52.502;16.732;2024-01-07T08:43:45;-5.56;87.11
72320;SHT30;60269;52.502;16.732;2024-01-07T08:47:17;-5.50;85.78
72320;SHT30;60269;52.502;16.732;2024-01-07T08:50:49;-5.49;85.16
72320;SHT30;60269;52.502;16.732;2024-01-07T08:54:22;-5.48;85.17
72320;SHT30;60269;52.502;16.732;2024-01-07T08:57:54;-5.48;84.87
72320;SHT30;60269;52.502;16.732;2024-01-07T09:01:26;-5.53;84.69
72320;SHT30;60269;52.502;16.732;2024-01-07T09:04:58;-5.50;85.11
72320;SHT30;60269;52.502;16.732;2024-01-07T09:08:30;-5.55;85.13
72320;SHT30;60269;52.502;16.732;2024-01-07T09:12:03;-5.49;85.35
72320;SHT30;60269;52.502;16.732;2024-01-07T09:15:35;-5.48;85.03
72320;SHT30;60269;52.502;16.732;2024-01-07T09:19:07;-5.40;85.54
72320;SHT30;60269;52.502;16.732;2024-01-07T09:22:41;-5.36;85.29
72320;SHT30;60269;52.502;16.732;2024-01-07T09:26:15;-5.29;84.90
72320;SHT30;60269;52.502;16.732;2024-01-07T09:29:47;-5.19;84.65
72320;SHT30;60269;52.502;16.732;2024-01-07T09:33:19;-5.05;83.90
72320;SHT30;60269;52.502;16.732;2024-01-07T09:36:54;-4.94;83.65
72320;SHT30;60269;52.502;16.732;2024-01-07T09:40:26;-4.91;83.09
72320;SHT30;60269;52.502;16.732;2024-01-07T09:43:59;-4.87;82.46
72320;SHT30;60269;52.502;16.732;2024-01-07T09:47:31;-4.71;82.13
72320;SHT30;60269;52.502;16.732;2024-01-07T09:51:04;-4.52;81.65
72320;SHT30;60269;52.502;16.732;2024-01-07T09:54:40;-4.43;80.14
72320;SHT30;60269;52.502;16.732;2024-01-07T09:58:12;-4.39;79.52
72320;SHT30;60269;52.502;16.732;2024-01-07T10:01:45;-4.06;79.67
72320;SHT30;60269;52.502;16.732;2024-01-07T10:05:20;-3.84;78.10
72320;SHT30;60269;52.502;16.732;2024-01-07T10:08:52;-3.94;78.03
72320;SHT30;60269;52.502;16.732;2024-01-07T10:12:24;-3.94;78.47
72320;SHT30;60269;52.502;16.732;2024-01-07T10:15:56;-3.77;77.06
72320;SHT30;60269;52.502;16.732;2024-01-07T10:19:29;-3.59;76.60
72320;SHT30;60269;52.502;16.732;2024-01-07T10:23:04;-3.46;76.43
72320;SHT30;60269;52.502;16.732;2024-01-07T10:26:37;-3.56;75.62
72320;SHT30;60269;52.502;16.732;2024-01-07T10:30:11;-3.59;76.40
72320;SHT30;60269;52.502;16.732;2024-01-07T10:33:43;-3.59;76.40
72320;SHT30;60269;52.502;16.732;2024-01-07T10:37:16;-3.29;75.81
72320;SHT30;60269;52.502;16.732;2024-01-07T10:40:50;-2.92;75.39
72320;SHT30;60269;52.502;16.732;2024-01-07T10:44:29;-2.95;74.73
72320;SHT30;60269;52.502;16.732;2024-01-07T10:48:04;-3.06;75.09
72320;SHT30;60269;52.502;16.732;2024-01-07T10:51:40;-3.02;75.63
72320;SHT30;60269;52.502;16.732;2024-01-07T10:55:14;-3.11;76.23
72320;SHT30;60269;52.502;16.732;2024-01-07T10:58:51;-2.85;76.03
72320;SHT30;60269;52.502;16.732;2024-01-07T11:02:24;-3.11;75.76
72320;SHT30;60269;52.502;16.732;2024-01-07T11:05:59;-2.63;75.32
72320;SHT30;60269;52.502;16.732;2024-01-07T11:10:04;-2.53;74.40
72320;SHT30;60269;52.502;16.732;2024-01-07T11:13:38;-2.92;76.26
72320;SHT30;60269;52.502;16.732;2024-01-07T11:17:11;-3.02;76.65
72320;SHT30;60269;52.502;16.732;2024-01-07T11:20:48;-3.09;76.02
72320;SHT30;60269;52.502;16.732;2024-01-07T11:24:37;-3.40;76.52
72320;SHT30;60269;52.502;16.732;2024-01-07T11:28:12;-3.77;77.69
72320;SHT30;60269;52.502;16.732;2024-01-07T11:31:45;-3.62;77.03
72320;SHT30;60269;52.502;16.732;2024-01-07T11:36:01;-3.59;77.27
72320;SHT30;60269;52.502;16.732;2024-01-07T11:39:34;-3.44;76.44
72320;SHT30;60269;52.502;16.732;2024-01-07T11:43:07;-3.32;76.19
72320;SHT30;60269;52.502;16.732;2024-01-07T11:46:40;-2.91;75.05
72320;SHT30;60269;52.502;16.732;2024-01-07T11:50:13;-3.56;76.10
72320;SHT30;60269;52.502;16.732;2024-01-07T11:53:49;-4.25;76.50
72320;SHT30;60269;52.502;16.732;2024-01-07T11:57:20;-4.02;75.88
72320;SHT30;60269;52.502;16.732;2024-01-07T12:00:53;-3.62;71.82
72320;SHT30;60269;52.502;16.732;2024-01-07T12:04:25;-3.26;70.14
72320;SHT30;60269;52.502;16.732;2024-01-07T12:08:00;-3.32;68.20
72320;SHT30;60269;52.502;16.732;2024-01-07T12:11:32;-3.26;68.25
72320;SHT30;60269;52.502;16.732;2024-01-07T12:15:07;-3.32;68.09
72320;SHT30;60269;52.502;16.732;2024-01-07T12:18:39;-3.84;69.28
72320;SHT30;60269;52.502;16.732;2024-01-07T12:22:12;-4.48;72.33
72320;SHT30;60269;52.502;16.732;2024-01-07T12:25:44;-5.04;74.42
72320;SHT30;60269;52.502;16.732;2024-01-07T12:29:16;-5.22;74.27
72320;SHT30;60269;52.502;16.732;2024-01-07T12:32:51;-5.19;74.60
72320;SHT30;60269;52.502;16.732;2024-01-07T12:36:23;-5.09;73.96
72320;SHT30;60269;52.502;16.732;2024-01-07T12:39:56;-4.73;73.75
72320;SHT30;60269;52.502;16.732;2024-01-07T12:43:28;-4.56;72.16
72320;SHT30;60269;52.502;16.732;2024-01-07T12:47:02;-4.67;71.63
72320;SHT30;60269;52.502;16.732;2024-01-07T12:50:35;-4.69;72.43
72320;SHT30;60269;52.502;16.732;2024-01-07T12:54:07;-5.19;73.73
72320;SHT30;60269;52.502;16.732;2024-01-07T12:57:39;-5.79;74.42
72320;SHT30;60269;52.502;16.732;2024-01-07T13:01:11;-6.12;74.70
72320;SHT30;60269;52.502;16.732;2024-01-07T13:04:43;-6.07;74.07
72320;SHT30;60269;52.502;16.732;2024-01-07T13:08:16;-5.70;73.51
72320;SHT30;60269;52.502;16.732;2024-01-07T13:11:50;-5.38;70.83
72320;SHT30;60269;52.502;16.732;2024-01-07T13:15:23;-5.21;69.62
72320;SHT30;60269;52.502;16.732;2024-01-07T13:18:55;-5.74;70.53
72320;SHT30;60269;52.502;16.732;2024-01-07T13:22:28;-5.95;72.14
72320;SHT30;60269;52.502;16.732;2024-01-07T13:26:00;-5.95;72.03
72320;SHT30;60269;52.502;16.732;2024-01-07T13:29:38;-5.90;71.39
72320;SHT30;60269;52.502;16.732;2024-01-07T13:33:10;-5.81;71.53
72320;SHT30;60269;52.502;16.732;2024-01-07T13:36:42;-6.17;71.55
72320;SHT30;60269;52.502;16.732;2024-01-07T13:40:15;-6.28;71.26
72320;SHT30;60269;52.502;16.732;2024-01-07T13:43:48;-6.53;72.40
72320;SHT30;60269;52.502;16.732;2024-01-07T13:47:20;-6.81;72.87
72320;SHT30;60269;52.502;16.732;2024-01-07T13:50:53;-7.00;74.05
72320;SHT30;60269;52.502;16.732;2024-01-07T13:54:26;-7.22;75.59
72320;SHT30;60269;52.502;16.732;2024-01-07T13:57:58;-7.45;75.34
72320;SHT30;60269;52.502;16.732;2024-01-07T14:01:31;-7.62;75.58
72320;SHT30;60269;52.502;16.732;2024-01-07T14:05:05;-7.75;76.18
72320;SHT30;60269;52.502;16.732;2024-01-07T14:08:38;-7.90;76.30
72320;SHT30;60269;52.502;16.732;2024-01-07T14:12:10;-8.04;77.25
72320;SHT30;60269;52.502;16.732;2024-01-07T14:15:43;-8.14;77.10
72320;SHT30;60269;52.502;16.732;2024-01-07T14:19:15;-8.24;77.65
72320;SHT30;60269;52.502;16.732;2024-01-07T14:22:48;-8.27;77.66
72320;SHT30;60269;52.502;16.732;2024-01-07T14:26:21;-8.41;78.88
72320;SHT30;60269;52.502;16.732;2024-01-07T14:29:55;-8.52;79.47
72320;SHT30;60269;52.502;16.732;2024-01-07T14:33:27;-8.60;79.40
72320;SHT30;60269;52.502;16.732;2024-01-07T14:37:00;-8.70;80.43
72320;SHT30;60269;52.502;16.732;2024-01-07T14:40:34;-8.79;80.77
72320;SHT30;60269;52.502;16.732;2024-01-07T14:44:06;-8.86;80.77
72320;SHT30;60269;52.502;16.732;2024-01-07T14:47:43;-8.79;80.52
72320;SHT30;60269;52.502;16.732;2024-01-07T14:51:15;-8.89;80.80
72320;SHT30;60269;52.502;16.732;2024-01-07T14:54:47;-8.95;81.28
72320;SHT30;60269;52.502;16.732;2024-01-07T14:58:21;-9.14;81.74
72320;SHT30;60269;52.502;16.732;2024-01-07T15:01:54;-9.10;81.60
72320;SHT30;60269;52.502;16.732;2024-01-07T15:05:27;-9.18;82.62
72320;SHT30;60269;52.502;16.732;2024-01-07T15:08:59;-9.21;82.79
72320;SHT30;60269;52.502;16.732;2024-01-07T15:12:31;-9.25;83.07
72320;SHT30;60269;52.502;16.732;2024-01-07T15:16:09;-9.28;83.37
72320;SHT30;60269;52.502;16.732;2024-01-07T15:19:41;-9.20;82.43
72320;SHT30;60269;52.502;16.732;2024-01-07T15:23:13;-9.31;82.96
72320;SHT30;60269;52.502;16.732;2024-01-07T15:26:48;-9.24;82.36
72320;SHT30;60269;52.502;16.732;2024-01-07T15:30:21;-9.28;81.53
72320;SHT30;60269;52.502;16.732;2024-01-07T15:33:54;-9.31;82.04
72320;SHT30;60269;52.502;16.732;2024-01-07T15:37:26;-9.45;82.62
72320;SHT30;60269;52.502;16.732;2024-01-07T15:40:58;-9.59;83.77
72320;SHT30;60269;52.502;16.732;2024-01-07T15:44:31;-9.54;83.30
72320;SHT30;60269;52.502;16.732;2024-01-07T15:48:03;-9.69;84.09
72320;SHT30;60269;52.502;16.732;2024-01-07T15:51:35;-9.65;84.12
72320;SHT30;60269;52.502;16.732;2024-01-07T15:55:08;-9.79;84.60
72320;SHT30;60269;52.502;16.732;2024-01-07T15:58:40;-9.82;84.79
72320;SHT30;60269;52.502;16.732;2024-01-07T16:02:14;-10.03;85.87
72320;SHT30;60269;52.502;16.732;2024-01-07T16:05:46;-10.03;86.06
72320;SHT30;60269;52.502;16.732;2024-01-07T16:09:18;-9.83;85.13
72320;SHT30;60269;52.502;16.732;2024-01-07T16:12:50;-9.80;84.95
72320;SHT30;60269;52.502;16.732;2024-01-07T16:16:22;-9.83;84.95
72320;SHT30;60269;52.502;16.732;2024-01-07T16:19:54;-9.85;84.93
72320;SHT30;60269;52.502;16.732;2024-01-07T16:23:27;-9.97;85.36
72320;SHT30;60269;52.502;16.732;2024-01-07T16:26:59;-9.92;85.62
72320;SHT30;60269;52.502;16.732;2024-01-07T16:30:31;-9.89;85.23
72320;SHT30;60269;52.502;16.732;2024-01-07T16:34:03;-9.90;85.68
72320;SHT30;60269;52.502;16.732;2024-01-07T16:37:38;-9.94;85.64
72320;SHT30;60269;52.502;16.732;2024-01-07T16:41:10;-9.92;85.54
72320;SHT30;60269;52.502;16.732;2024-01-07T16:44:42;-10.12;86.48
72320;SHT30;60269;52.502;16.732;2024-01-07T16:48:14;-10.23;87.52
72320;SHT30;60269;52.502;16.732;2024-01-07T16:52:06;-10.20;87.32
72320;SHT30;60269;52.502;16.732;2024-01-07T16:55:38;-10.17;87.16
72320;SHT30;60269;52.502;16.732;2024-01-07T16:59:10;-10.30;87.78
72320;SHT30;60269;52.502;16.732;2024-01-07T17:02:42;-10.27;88.63
72320;SHT30;60269;52.502;16.732;2024-01-07T17:06:15;-10.09;88.63
72320;SHT30;60269;52.502;16.732;2024-01-07T17:09:47;-9.90;88.64
72320;SHT30;60269;52.502;16.732;2024-01-07T17:13:19;-9.73;88.43
72320;SHT30;60269;52.502;16.732;2024-01-07T17:16:51;-9.58;87.53
72320;SHT30;60269;52.502;16.732;2024-01-07T17:20:26;-9.44;87.17
72320;SHT30;60269;52.502;16.732;2024-01-07T17:23:58;-9.34;87.44
72320;SHT30;60269;52.502;16.732;2024-01-07T17:27:30;-9.35;87.04
72320;SHT30;60269;52.502;16.732;2024-01-07T17:31:02;-9.37;86.70
72320;SHT30;60269;52.502;16.732;2024-01-07T17:34:35;-9.38;87.34
72320;SHT30;60269;52.502;16.732;2024-01-07T17:38:07;-9.34;87.89
72320;SHT30;60269;52.502;16.732;2024-01-07T17:41:39;-9.28;88.04
72320;SHT30;60269;52.502;16.732;2024-01-07T17:45:12;-9.30;87.08
72320;SHT30;60269;52.502;16.732;2024-01-07T17:48:46;-9.31;87.24
72320;SHT30;60269;52.502;16.732;2024-01-07T17:52:18;-9.30;87.21
72320;SHT30;60269;52.502;16.732;2024-01-07T17:55:50;-9.28;86.94
72320;SHT30;60269;52.502;16.732;2024-01-07T17:59:22;-9.30;87.63
72320;SHT30;60269;52.502;16.732;2024-01-07T18:02:55;-9.30;87.03
72320;SHT30;60269;52.502;16.732;2024-01-07T18:06:27;-9.27;87.37
72320;SHT30;60269;52.502;16.732;2024-01-07T18:09:59;-9.32;87.07
72320;SHT30;60269;52.502;16.732;2024-01-07T18:13:32;-9.30;87.39
72320;SHT30;60269;52.502;16.732;2024-01-07T18:17:05;-9.28;88.37
72320;SHT30;60269;52.502;16.732;2024-01-07T18:20:37;-9.27;88.20
72320;SHT30;60269;52.502;16.732;2024-01-07T18:24:10;-9.27;88.09
72320;SHT30;60269;52.502;16.732;2024-01-07T18:27:42;-9.18;88.79
72320;SHT30;60269;52.502;16.732;2024-01-07T18:31:16;-9.17;88.86
72320;SHT30;60269;52.502;16.732;2024-01-07T18:34:48;-9.17;89.05
72320;SHT30;60269;52.502;16.732;2024-01-07T18:38:20;-9.14;89.35
72320;SHT30;60269;52.502;16.732;2024-01-07T18:41:53;-9.14;89.31
72320;SHT30;60269;52.502;16.732;2024-01-07T18:45:26;-9.16;88.96
72320;SHT30;60269;52.502;16.732;2024-01-07T18:48:58;-9.17;88.86
72320;SHT30;60269;52.502;16.732;2024-01-07T18:52:30;-9.24;88.61
72320;SHT30;60269;52.502;16.732;2024-01-07T18:56:07;-9.25;87.62
72320;SHT30;60269;52.502;16.732;2024-01-07T18:59:39;-9.30;87.47
72320;SHT30;60269;52.502;16.732;2024-01-07T19:03:11;-9.32;87.40
72320;SHT30;60269;52.502;16.732;2024-01-07T19:06:46;-9.37;86.64
72320;SHT30;60269;52.502;16.732;2024-01-07T19:10:19;-9.42;87.07
72320;SHT30;60269;52.502;16.732;2024-01-07T19:13:51;-9.42;87.73
72320;SHT30;60269;52.502;16.732;2024-01-07T19:17:23;-9.42;88.11
72320;SHT30;60269;52.502;16.732;2024-01-07T19:20:55;-9.39;89.03
72320;SHT30;60269;52.502;16.732;2024-01-07T19:24:42;-9.34;88.90
72320;SHT30;60269;52.502;16.732;2024-01-07T19:28:14;-9.39;88.46
72320;SHT30;60269;52.502;16.732;2024-01-07T19:31:46;-9.38;88.81
72320;SHT30;60269;52.502;16.732;2024-01-07T19:35:18;-9.41;88.74
72320;SHT30;60269;52.502;16.732;2024-01-07T19:38:51;-9.39;88.08
72320;SHT30;60269;52.502;16.732;2024-01-07T19:42:28;-9.44;87.52
72320;SHT30;60269;52.502;16.732;2024-01-07T19:46:00;-9.44;88.43
72320;SHT30;60269;52.502;16.732;2024-01-07T19:49:32;-9.45;89.46
72320;SHT30;60269;52.502;16.732;2024-01-07T19:53:04;-9.44;89.46
72320;SHT30;60269;52.502;16.732;2024-01-07T19:56:43;-9.41;89.92
72320;SHT30;60269;52.502;16.732;2024-01-07T20:00:16;-9.46;88.83
72320;SHT30;60269;52.502;16.732;2024-01-07T20:03:48;-9.51;88.27
72320;SHT30;60269;52.502;16.732;2024-01-07T20:07:20;-9.52;87.61
72320;SHT30;60269;52.502;16.732;2024-01-07T20:10:52;-9.54;87.66
72320;SHT30;60269;52.502;16.732;2024-01-07T20:14:24;-9.52;88.12
72320;SHT30;60269;52.502;16.732;2024-01-07T20:17:57;-9.56;87.75
72320;SHT30;60269;52.502;16.732;2024-01-07T20:21:29;-9.52;88.62
72320;SHT30;60269;52.502;16.732;2024-01-07T20:25:02;-9.54;88.61
72320;SHT30;60269;52.502;16.732;2024-01-07T20:28:40;-9.54;89.46
72320;SHT30;60269;52.502;16.732;2024-01-07T20:32:12;-9.48;89.79
72320;SHT30;60269;52.502;16.732;2024-01-07T20:35:45;-9.49;89.56
72320;SHT30;60269;52.502;16.732;2024-01-07T20:39:17;-9.52;90.23
72320;SHT30;60269;52.502;16.732;2024-01-07T20:42:49;-9.49;89.72
72320;SHT30;60269;52.502;16.732;2024-01-07T20:46:21;-9.52;88.32
72320;SHT30;60269;52.502;16.732;2024-01-07T20:49:53;-9.55;88.50
72320;SHT30;60269;52.502;16.732;2024-01-07T20:53:25;-9.51;89.42
72320;SHT30;60269;52.502;16.732;2024-01-07T20:56:57;-9.51;90.27
72320;SHT30;60269;52.502;16.732;2024-01-07T21:00:29;-9.48;90.31
72320;SHT30;60269;52.502;16.732;2024-01-07T21:04:01;-9.51;90.56
72320;SHT30;60269;52.502;16.732;2024-01-07T21:07:34;-9.56;90.94
72320;SHT30;60269;52.502;16.732;2024-01-07T21:11:10;-9.52;90.77
72320;SHT30;60269;52.502;16.732;2024-01-07T21:14:42;-9.66;89.29
72320;SHT30;60269;52.502;16.732;2024-01-07T21:18:16;-9.66;89.35
72320;SHT30;60269;52.502;16.732;2024-01-07T21:21:49;-9.66;89.87
72320;SHT30;60269;52.502;16.732;2024-01-07T21:25:23;-9.72;89.42
72320;SHT30;60269;52.502;16.732;2024-01-07T21:28:56;-9.76;89.41
72320;SHT30;60269;52.502;16.732;2024-01-07T21:32:28;-9.77;88.83
72320;SHT30;60269;52.502;16.732;2024-01-07T21:36:01;-9.83;89.01
72320;SHT30;60269;52.502;16.732;2024-01-07T21:39:34;-9.86;89.40
72320;SHT30;60269;52.502;16.732;2024-01-07T21:43:06;-9.86;89.28
72320;SHT30;60269;52.502;16.732;2024-01-07T21:46:43;-9.83;89.90
72320;SHT30;60269;52.502;16.732;2024-01-07T21:50:16;-9.87;89.78
72320;SHT30;60269;52.502;16.732;2024-01-07T21:53:48;-9.87;89.66
72320;SHT30;60269;52.502;16.732;2024-01-07T21:57:20;-9.89;90.26
72320;SHT30;60269;52.502;16.732;2024-01-07T22:00:52;-9.86;89.72
72320;SHT30;60269;52.502;16.732;2024-01-07T22:04:27;-9.89;90.29